createdAt,value
2022-11-29T00:03:31.400Z,5.01
2022-11-29T00:07:30.746Z,5.03
2022-11-29T00:11:50.125Z,5.06
2022-11-29T00:15:49.300Z,5.09
2022-11-29T00:19:47.738Z,5.12
2022-11-29T00:23:46.709Z,5.14
2022-11-29T00:27:45.761Z,5.16
2022-11-29T00:31:44.737Z,5.17
2022-11-29T00:35:43.677Z,5.19
2022-11-29T00:39:42.378Z,5.20
2022-11-29T00:43:41.120Z,5.19
2022-11-29T00:47:53.966Z,5.18
2022-11-29T00:51:53.360Z,5.19
2022-11-29T00:55:53.009Z,5.20
2022-11-29T00:59:52.366Z,5.21
2022-11-29T01:04:24.240Z,5.21
2022-11-29T01:07:42.817Z,5.21
2022-11-29T01:11:41.481Z,5.22
2022-11-29T01:15:40.359Z,5.24
2022-11-29T01:19:39.479Z,5.23
2022-11-29T01:23:38.450Z,5.22
2022-11-29T01:27:37.626Z,5.22
2022-11-29T01:31:37.226Z,5.20
2022-11-29T01:35:36.200Z,5.19
2022-11-29T01:39:35.399Z,5.18
2022-11-29T01:43:34.722Z,5.19
2022-11-29T01:47:43.977Z,5.20
2022-11-29T01:51:11.162Z,5.21
2022-11-29T01:55:24.030Z,5.17
2022-11-29T01:59:25.980Z,5.15
2022-11-29T02:03:25.358Z,5.14
2022-11-29T02:07:24.559Z,5.13
2022-11-29T02:11:42.204Z,5.10
2022-11-29T02:15:44.059Z,5.09
2022-11-29T02:20:20.859Z,5.06
2022-11-29T02:23:25.323Z,5.02
2022-11-29T02:27:30.772Z,4.98
2022-11-29T02:31:42.097Z,4.94
2022-11-29T02:35:43.625Z,4.91
2022-11-29T02:39:49.738Z,4.86
2022-11-29T02:43:48.658Z,4.81
2022-11-29T02:47:53.397Z,4.78
2022-11-29T02:51:58.063Z,4.75
2022-11-29T02:56:15.321Z,4.75
2022-11-29T03:00:16.360Z,4.70
2022-11-29T03:04:18.258Z,4.68
2022-11-29T03:08:35.833Z,4.62
2022-11-29T03:12:43.574Z,4.60
2022-11-29T03:16:47.587Z,4.60
2022-11-29T03:21:05.047Z,4.58
2022-11-29T03:25:09.547Z,4.55
2022-11-29T03:29:21.116Z,4.52
2022-11-29T03:33:23.053Z,4.48
2022-11-29T03:37:26.108Z,4.47
2022-11-29T03:41:24.556Z,4.45
2022-11-29T03:45:23.518Z,4.43
2022-11-29T03:49:37.909Z,4.41
2022-11-29T03:53:39.997Z,4.40
2022-11-29T03:57:59.184Z,4.37
2022-11-29T04:02:18.326Z,4.34
2022-11-29T04:06:20.057Z,4.35
2022-11-29T04:10:43.996Z,4.34
2022-11-29T04:14:56.187Z,4.33
2022-11-29T04:19:13.724Z,4.32
2022-11-29T04:23:27.716Z,4.34
2022-11-29T04:27:46.817Z,4.32
2022-11-29T04:32:04.578Z,4.31
2022-11-29T04:36:22.183Z,4.31
2022-11-29T04:40:44.533Z,4.29
2022-11-29T04:44:43.455Z,4.27
2022-11-29T04:49:01.298Z,4.26
2022-11-29T04:53:20.838Z,4.22
2022-11-29T04:56:43.377Z,4.18
2022-11-29T05:00:50.428Z,4.17
2022-11-29T05:05:06.274Z,4.12
2022-11-29T05:09:23.532Z,4.12
2022-11-29T05:13:41.049Z,4.12
2022-11-29T05:17:53.535Z,4.13
2022-11-29T05:22:16.490Z,4.12
2022-11-29T05:26:18.140Z,4.09
2022-11-29T05:30:22.786Z,4.06
2022-11-29T05:33:54.410Z,4.02
2022-11-29T05:38:09.121Z,4.00
2022-11-29T05:42:26.688Z,3.97
2022-11-29T05:46:38.135Z,3.95
2022-11-29T05:50:40.131Z,3.95
2022-11-29T05:54:57.636Z,3.97
2022-11-29T05:58:59.233Z,3.98
2022-11-29T06:03:03.595Z,3.95
2022-11-29T06:07:16.705Z,3.97
2022-11-29T06:11:56.045Z,3.96
2022-11-29T06:15:14.007Z,3.96
2022-11-29T06:19:31.631Z,3.95
2022-11-29T06:23:44.532Z,3.93
2022-11-29T06:27:46.664Z,3.89
2022-11-29T06:31:52.498Z,3.87
2022-11-29T06:36:10.031Z,3.84
2022-11-29T06:40:14.371Z,3.80
2022-11-29T06:44:13.626Z,3.77
2022-11-29T06:48:16.530Z,3.78
2022-11-29T06:52:34.196Z,3.75
2022-11-29T06:56:47.315Z,3.73
2022-11-29T07:00:55.837Z,3.72
2022-11-29T07:05:20.806Z,3.73
2022-11-29T07:09:20.668Z,3.67
2022-11-29T07:13:20.648Z,3.63
2022-11-29T07:17:19.249Z,3.60
2022-11-29T07:21:21.160Z,3.57
2022-11-29T07:25:33.988Z,3.55
2022-11-29T07:29:04.068Z,3.55
2022-11-29T07:33:18.484Z,3.56
2022-11-29T07:37:36.116Z,3.59
2022-11-29T07:41:53.576Z,3.63
2022-11-29T07:45:52.382Z,3.62
2022-11-29T07:49:52.135Z,3.60
2022-11-29T07:53:51.226Z,3.55
2022-11-29T07:57:50.826Z,3.48
2022-11-29T08:01:49.745Z,3.43
2022-11-29T08:05:49.138Z,3.44
2022-11-29T08:09:48.107Z,3.44
2022-11-29T08:13:47.254Z,3.43
2022-11-29T08:17:46.871Z,3.41
2022-11-29T08:21:47.893Z,3.38
2022-11-29T08:26:01.907Z,3.37
2022-11-29T08:30:01.103Z,3.37
2022-11-29T08:33:59.750Z,3.38
2022-11-29T08:37:58.698Z,3.39
2022-11-29T08:41:58.014Z,3.39
2022-11-29T08:45:57.470Z,3.40
2022-11-29T08:50:02.291Z,3.42
2022-11-29T08:54:01.635Z,3.42
2022-11-29T08:58:01.655Z,3.42
2022-11-29T09:02:01.125Z,3.41
2022-11-29T09:06:10.529Z,3.44
2022-11-29T09:10:12.336Z,3.44
2022-11-29T09:14:13.222Z,3.47
2022-11-29T09:18:12.515Z,3.47
2022-11-29T09:22:11.456Z,3.47
2022-11-29T09:26:10.936Z,3.47
2022-11-29T09:30:10.640Z,3.49
2022-11-29T09:34:09.453Z,3.51
2022-11-29T09:38:11.153Z,3.55
2022-11-29T09:42:28.815Z,3.55
2022-11-29T09:46:46.472Z,3.57
2022-11-29T09:51:05.492Z,3.58
2022-11-29T09:55:23.103Z,3.58
2022-11-29T09:59:27.613Z,3.61
2022-11-29T10:03:32.062Z,3.61
2022-11-29T10:07:31.828Z,3.59
2022-11-29T10:11:57.051Z,3.59
2022-11-29T10:16:01.976Z,3.61
2022-11-29T10:20:04.720Z,3.62
2022-11-29T10:24:13.631Z,3.61
2022-11-29T10:28:26.669Z,3.61
2022-11-29T10:32:25.892Z,3.63
2022-11-29T10:36:40.873Z,3.64
2022-11-29T10:40:42.050Z,3.65
2022-11-29T10:44:41.554Z,3.66
2022-11-29T10:48:40.285Z,3.66
2022-11-29T10:52:39.460Z,3.67
2022-11-29T10:56:39.690Z,3.69
2022-11-29T11:00:45.697Z,3.69
2022-11-29T11:04:46.457Z,3.70
2022-11-29T11:08:51.650Z,3.71
2022-11-29T11:13:17.049Z,3.73
2022-11-29T11:17:15.632Z,3.74
2022-11-29T11:21:15.614Z,3.76
2022-11-29T11:25:34.934Z,3.75
2022-11-29T11:29:41.415Z,3.77
2022-11-29T11:33:41.987Z,3.77
2022-11-29T11:37:40.634Z,3.77
2022-11-29T11:42:00.869Z,3.77
2022-11-29T11:46:00.067Z,3.78
2022-11-29T11:50:06.930Z,3.78
2022-11-29T11:54:13.928Z,3.78
2022-11-29T11:57:43.491Z,3.77
2022-11-29T12:01:42.449Z,3.78
2022-11-29T12:05:44.851Z,3.78
2022-11-29T12:09:48.072Z,3.80
2022-11-29T12:13:51.027Z,3.81
2022-11-29T12:17:55.917Z,3.82
2022-11-29T12:22:15.911Z,3.83
2022-11-29T12:25:34.770Z,3.83
2022-11-29T12:29:34.493Z,3.84
2022-11-29T12:33:53.242Z,3.84
2022-11-29T12:37:56.907Z,3.85
2022-11-29T12:41:57.791Z,3.85
2022-11-29T12:46:14.169Z,3.86
2022-11-29T12:50:07.430Z,3.86
2022-11-29T12:54:06.113Z,3.85
2022-11-29T12:58:05.255Z,3.85
2022-11-29T13:02:04.331Z,3.86
2022-11-29T13:06:07.910Z,3.87
2022-11-29T13:10:39.625Z,3.87
2022-11-29T13:15:15.259Z,3.87
2022-11-29T13:18:37.780Z,3.86
2022-11-29T13:22:46.467Z,3.86
2022-11-29T13:26:46.190Z,3.87
2022-11-29T13:30:45.268Z,3.87
2022-11-29T13:34:47.198Z,3.85
2022-11-29T13:39:05.558Z,3.85
2022-11-29T13:43:08.024Z,3.85
2022-11-29T13:47:19.626Z,3.85
2022-11-29T13:50:52.825Z,3.84
2022-11-29T13:55:12.567Z,3.84
2022-11-29T13:59:30.596Z,3.85
2022-11-29T14:03:31.887Z,3.86
2022-11-29T14:07:33.412Z,3.85
2022-11-29T14:11:34.643Z,3.85
2022-11-29T14:15:37.381Z,3.85
2022-11-29T14:19:37.193Z,3.84
2022-11-29T14:23:37.231Z,3.84
2022-11-29T14:27:36.331Z,3.83
2022-11-29T14:31:53.847Z,3.81
2022-11-29T14:36:08.228Z,3.81
2022-11-29T14:40:32.860Z,3.82
2022-11-29T14:44:33.156Z,3.82
2022-11-29T14:48:33.263Z,3.82
2022-11-29T14:52:32.591Z,3.82
2022-11-29T14:56:31.489Z,3.81
2022-11-29T15:00:43.949Z,3.83
2022-11-29T15:04:43.879Z,3.86
2022-11-29T15:08:50.408Z,3.87
2022-11-29T15:13:04.712Z,3.87
2022-11-29T15:17:21.091Z,3.87
2022-11-29T15:21:20.310Z,3.86
2022-11-29T15:25:21.406Z,3.89
2022-11-29T15:29:21.556Z,3.91
2022-11-29T15:33:22.844Z,3.91
2022-11-29T15:37:40.107Z,3.92
2022-11-29T15:41:41.287Z,3.91
2022-11-29T15:45:30.603Z,3.93
2022-11-29T15:49:44.242Z,3.94
2022-11-29T15:54:13.145Z,3.92
2022-11-29T15:57:26.533Z,3.85
2022-11-29T16:01:26.010Z,3.78
2022-11-29T16:05:34.303Z,3.75
2022-11-29T16:09:03.281Z,3.73
2022-11-29T16:13:25.067Z,3.72
2022-11-29T16:17:29.588Z,3.69
2022-11-29T16:21:30.227Z,3.67
2022-11-29T16:25:36.130Z,3.66
2022-11-29T16:29:45.365Z,3.64
2022-11-29T16:33:45.129Z,3.63
2022-11-29T16:37:44.772Z,3.61
2022-11-29T16:41:44.387Z,3.61
2022-11-29T16:45:44.079Z,3.58
2022-11-29T16:49:44.390Z,3.59
2022-11-29T16:53:47.886Z,3.58
2022-11-29T16:57:47.534Z,3.58
2022-11-29T17:01:48.170Z,3.57
2022-11-29T17:05:24.284Z,3.59
2022-11-29T17:09:28.298Z,3.58
2022-11-29T17:13:27.914Z,3.56
2022-11-29T17:17:27.383Z,3.54
2022-11-29T17:21:27.689Z,3.52
2022-11-29T17:25:26.748Z,3.49
2022-11-29T17:29:26.609Z,3.47
2022-11-29T17:33:25.859Z,3.47
2022-11-29T17:37:39.416Z,3.46
2022-11-29T17:41:52.650Z,3.44
2022-11-29T17:45:51.951Z,3.43
2022-11-29T17:49:51.276Z,3.41
2022-11-29T17:53:51.281Z,3.41
2022-11-29T17:57:50.683Z,3.40
2022-11-29T18:01:50.394Z,3.37
2022-11-29T18:05:51.723Z,3.37
2022-11-29T18:09:51.272Z,3.33
2022-11-29T18:13:52.622Z,3.33
2022-11-29T18:17:51.528Z,3.34
2022-11-29T18:21:51.634Z,3.31
2022-11-29T18:26:01.469Z,3.29
2022-11-29T18:30:00.798Z,3.27
2022-11-29T18:34:01.621Z,3.26
2022-11-29T18:38:16.727Z,3.24
2022-11-29T18:42:22.182Z,3.24
2022-11-29T18:45:53.978Z,3.25
2022-11-29T18:50:34.205Z,3.25
2022-11-29T18:53:45.565Z,3.22
2022-11-29T18:57:47.913Z,3.21
2022-11-29T19:01:48.560Z,3.21
2022-11-29T19:05:56.349Z,3.20
2022-11-29T19:09:25.710Z,3.17
2022-11-29T19:13:24.702Z,3.16
2022-11-29T19:17:23.900Z,3.16
2022-11-29T19:21:24.644Z,3.14
2022-11-29T19:25:23.702Z,3.14
2022-11-29T19:29:23.622Z,3.11
2022-11-29T19:33:25.084Z,3.09
2022-11-29T19:37:24.411Z,3.09
2022-11-29T19:41:38.021Z,3.10
2022-11-29T19:45:40.700Z,3.11
2022-11-29T19:49:44.788Z,3.12
2022-11-29T19:53:46.628Z,3.12
2022-11-29T19:57:46.323Z,3.13
2022-11-29T20:01:45.401Z,3.13
2022-11-29T20:05:53.177Z,3.10
2022-11-29T20:09:52.044Z,3.10
2022-11-29T20:13:55.429Z,3.11
2022-11-29T20:17:54.646Z,3.11
2022-11-29T20:21:54.056Z,3.09
2022-11-29T20:25:53.596Z,3.08
2022-11-29T20:29:52.963Z,3.05
2022-11-29T20:33:53.242Z,3.04
2022-11-29T20:37:55.173Z,3.04
2022-11-29T20:41:54.172Z,3.06
2022-11-29T20:45:53.910Z,3.06
2022-11-29T20:49:53.286Z,3.05
2022-11-29T20:53:52.562Z,3.05
2022-11-29T20:57:51.752Z,3.04
2022-11-29T21:02:04.444Z,3.05
2022-11-29T21:06:05.071Z,3.04
2022-11-29T21:10:04.925Z,3.05
2022-11-29T21:14:06.223Z,3.03
2022-11-29T21:18:05.825Z,3.02
2022-11-29T21:22:07.815Z,3.04
2022-11-29T21:26:17.353Z,3.00
2022-11-29T21:30:19.334Z,2.97
2022-11-29T21:34:19.870Z,2.94
2022-11-29T21:38:22.776Z,2.91
2022-11-29T21:41:57.305Z,2.91
2022-11-29T21:45:57.581Z,2.92
2022-11-29T21:49:57.505Z,2.91
2022-11-29T21:53:56.704Z,2.89
2022-11-29T21:57:55.924Z,2.88
2022-11-29T22:02:10.053Z,2.88
2022-11-29T22:06:15.036Z,2.87
2022-11-29T22:10:18.475Z,2.85
2022-11-29T22:14:18.738Z,2.86
2022-11-29T22:18:18.264Z,2.85
2022-11-29T22:22:17.392Z,2.86
2022-11-29T22:26:16.498Z,2.88
2022-11-29T22:30:15.967Z,2.90
2022-11-29T22:34:15.242Z,2.93
2022-11-29T22:38:16.207Z,2.95
2022-11-29T22:41:54.617Z,2.94
2022-11-29T22:45:54.243Z,2.91
2022-11-29T22:49:55.425Z,2.89
2022-11-29T22:53:31.153Z,2.89
2022-11-29T22:57:29.997Z,2.92
2022-11-29T23:01:42.687Z,2.92
2022-11-29T23:05:41.321Z,2.92
2022-11-29T23:09:40.794Z,2.91
2022-11-29T23:13:41.640Z,2.90
2022-11-29T23:17:40.950Z,2.90
2022-11-29T23:21:40.855Z,2.91
2022-11-29T23:25:46.759Z,2.90
2022-11-29T23:30:05.719Z,2.89
2022-11-29T23:33:23.607Z,2.92
2022-11-29T23:37:22.669Z,2.93
2022-11-29T23:41:21.925Z,2.97
2022-11-29T23:45:20.956Z,2.98
2022-11-29T23:49:35.831Z,3.00
2022-11-29T23:53:34.740Z,3.03
2022-11-29T23:57:33.827Z,3.07
